Time;durP1;ratioP1;P1;durP2;ratioP2;P2;SDS_P1;SDS_P2;PMS_P1;PMS_P2;Temp;Humidity;BMP_temperature;BMP_pressure;BME280_temperature;BME280_humidity;BME280_pressure;Samples;Min_cycle;Max_cycle;Signal;HPM_P1;HPM_P2
2023/04/12 00:00:58;;;;;;;28.08;26.67;;;;;;;17.08;48.98;100396.78;5034135;28;20045;-83
2023/04/12 00:03:25;;;;;;;29.63;28.08;;;;;;;17.05;49.47;100383.72;5034310;28;20072;-82
2023/04/12 00:05:54;;;;;;;29.00;27.50;;;;;;;17.04;49.23;100377.47;5034076;28;20043;-85
2023/04/12 00:08:25;;;;;;;29.23;27.65;;;;;;;17.02;49.03;100371.47;5034536;28;20057;-83
2023/04/12 00:10:51;;;;;;;27.42;26.13;;;;;;;16.98;49.26;100354.06;5034828;28;20512;-83
2023/04/12 00:13:16;;;;;;;29.42;27.73;;;;;;;16.99;49.23;100357.63;5034151;28;20033;-79
2023/04/12 00:15:42;;;;;;;27.13;25.83;;;;;;;16.96;49.83;100350.84;5016577;28;20083;-82
2023/04/12 00:18:07;;;;;;;28.52;27.13;;;;;;;16.95;49.24;100346.47;5034381;28;20026;-83
2023/04/12 00:20:32;;;;;;;28.67;27.08;;;;;;;16.94;49.60;100327.69;5032700;28;20037;-84
2023/04/12 00:22:58;;;;;;;27.52;25.77;;;;;;;16.94;49.67;100324.97;5033719;28;20064;-83
2023/04/12 00:25:23;;;;;;;29.40;27.60;;;;;;;16.92;49.58;100302.63;5033941;28;20033;-84
2023/04/12 00:27:49;;;;;;;28.70;27.20;;;;;;;16.90;49.66;100293.91;5033804;28;20044;-83
2023/04/12 00:30:14;;;;;;;27.48;26.15;;;;;;;16.89;49.45;100295.84;5033449;28;20098;-83
2023/04/12 00:32:40;;;;;;;27.15;25.80;;;;;;;16.85;49.30;100283.88;5033628;28;20075;-83
2023/04/12 00:35:06;;;;;;;27.10;25.70;;;;;;;16.84;49.49;100276.81;5032100;28;20053;-82
2023/04/12 00:37:31;;;;;;;27.45;26.08;;;;;;;16.81;49.40;100270.03;5032899;28;20048;-83
2023/04/12 00:39:57;;;;;;;26.98;25.67;;;;;;;16.80;49.39;100271.13;5016071;28;20056;-82
2023/04/12 00:42:22;;;;;;;27.77;26.20;;;;;;;16.79;49.43;100266.78;5033391;28;20080;-81
2023/04/12 00:44:48;;;;;;;27.08;25.77;;;;;;;16.78;49.50;100246.09;5033388;28;20484;-83
2023/04/12 00:47:13;;;;;;;26.88;25.58;;;;;;;16.76;49.64;100237.34;5015284;28;20045;-82
2023/04/12 00:49:38;;;;;;;27.23;25.83;;;;;;;16.74;49.71;100236.03;5032665;28;20033;-82
2023/04/12 00:52:07;;;;;;;27.00;25.38;;;;;;;16.73;49.61;100232.50;5032623;28;20397;-82
2023/04/12 00:54:33;;;;;;;28.15;26.55;;;;;;;16.71;49.55;100215.63;5033536;28;20029;-79
2023/04/12 00:56:59;;;;;;;27.40;26.00;;;;;;;16.70;49.45;100210.44;5033532;28;20049;-83
2023/04/12 00:59:25;;;;;;;28.90;27.33;;;;;;;16.67;49.54;100196.28;5015748;28;20123;-83
2023/04/12 01:01:51;;;;;;;26.38;25.08;;;;;;;16.66;49.71;100186.50;5033412;28;20469;-83
2023/04/12 01:04:17;;;;;;;26.27;24.88;;;;;;;16.65;49.67;100194.97;5033478;28;20038;-83
2023/04/12 01:07:18;;;;;;;27.80;26.40;;;;;;;16.61;49.61;100183.84;5032019;28;20056;-82
2023/04/12 01:10:06;;;;;;;27.05;25.58;;;;;;;16.56;49.65;100166.78;5032386;28;20389;-81
2023/04/12 01:13:08;;;;;;;26.77;25.20;;;;;;;16.53;49.66;100154.53;5033387;28;20040;-83
2023/04/12 01:15:38;;;;;;;27.45;26.00;;;;;;;16.50;49.97;100146.94;5033314;28;20029;-83
2023/04/12 01:18:10;;;;;;;25.60;24.38;;;;;;;16.50;49.80;100146.13;5033419;28;20080;-83
2023/04/12 01:20:48;;;;;;;28.00;26.40;;;;;;;16.50;49.64;100140.69;5033852;28;20017;-83
2023/04/12 01:23:28;;;;;;;25.50;23.98;;;;;;;16.49;49.90;100139.88;5034062;28;20032;-84
2023/04/12 01:26:10;;;;;;;26.25;24.85;;;;;;;16.46;49.88;100124.13;5033622;28;20057;-83
2023/04/12 01:28:40;;;;;;;25.88;24.52;;;;;;;16.47;49.80;100127.66;5033765;28;20056;-83
2023/04/12 01:31:07;;;;;;;27.17;25.85;;;;;;;16.44;49.65;100112.69;5033297;28;20107;-83
2023/04/12 01:33:36;;;;;;;26.73;25.23;;;;;;;16.44;49.94;100105.31;5031636;28;20087;-83
2023/04/12 01:36:21;;;;;;;25.90;24.60;;;;;;;16.38;49.87;100098.34;5034062;28;20037;-83
2023/04/12 01:38:48;;;;;;;26.80;25.45;;;;;;;16.38;49.71;100092.09;5033581;28;20036;-82
2023/04/12 01:41:15;;;;;;;26.90;25.50;;;;;;;16.38;49.99;100095.63;5033212;28;20033;-84
2023/04/12 01:43:45;;;;;;;27.60;26.20;;;;;;;16.37;49.81;100094.00;5032211;28;20040;-82
2023/04/12 01:46:21;;;;;;;25.80;24.50;;;;;;;16.35;49.97;100087.22;5032994;28;20404;-82
2023/04/12 01:48:52;;;;;;;26.52;25.13;;;;;;;16.36;49.72;100084.19;5033724;28;20044;-81
2023/04/12 01:51:33;;;;;;;25.35;24.05;;;;;;;16.32;49.83;100066.81;5033123;28;20076;-83
2023/04/12 01:54:13;;;;;;;26.50;24.95;;;;;;;16.31;50.13;100059.75;5033659;28;20117;-84
2023/04/12 01:56:43;;;;;;;25.13;23.73;;;;;;;16.29;49.76;100048.34;5032327;28;20458;-83
2023/04/12 01:59:11;;;;;;;25.92;24.48;;;;;;;16.29;50.22;100042.88;5036834;28;20457;-84
2023/04/12 02:01:37;;;;;;;28.40;26.77;;;;;;;16.28;49.85;100040.44;5036375;28;20030;-84
2023/04/12 02:04:05;;;;;;;25.00;23.55;;;;;;;16.26;49.88;100027.13;5037078;28;20272;-83
2023/04/12 02:06:33;;;;;;;25.43;24.10;;;;;;;16.24;50.10;100018.44;5036755;28;20033;-83
2023/04/12 02:09:06;;;;;;;28.77;27.35;;;;;;;16.23;50.29;100014.13;5036596;28;20030;-81
2023/04/12 02:11:32;;;;;;;25.67;24.33;;;;;;;16.21;50.08;100013.59;5037049;28;20033;-84
2023/04/12 02:13:57;;;;;;;25.27;23.67;;;;;;;16.19;50.25;100002.19;5036316;28;20041;-82
2023/04/12 02:16:23;;;;;;;25.90;24.52;;;;;;;16.19;50.07;100004.91;5036418;28;20488;-83
2023/04/12 02:18:49;;;;;;;25.83;24.42;;;;;;;16.18;49.88;99998.66;5036592;28;20371;-80
2023/04/12 02:21:15;;;;;;;26.02;24.73;;;;;;;16.16;50.23;99989.16;5035080;28;20040;-79
2023/04/12 02:23:42;;;;;;;28.05;26.52;;;;;;;16.14;50.01;99980.47;5036046;28;20068;-80
2023/04/12 02:26:09;;;;;;;26.58;25.27;;;;;;;16.14;50.31;99966.84;5035514;28;20037;-81
2023/04/12 02:28:36;;;;;;;26.85;25.35;;;;;;;16.13;50.33;99960.59;5036571;28;20362;-81
2023/04/12 02:31:01;;;;;;;25.20;23.90;;;;;;;16.12;50.30;99960.88;5035823;28;20064;-81
2023/04/12 02:33:27;;;;;;;26.23;24.83;;;;;;;16.09;50.31;99956.84;5035956;28;20033;-80
2023/04/12 02:35:53;;;;;;;25.20;23.73;;;;;;;16.09;50.40;99939.69;5036553;28;20038;-81
2023/04/12 02:38:19;;;;;;;26.60;24.48;;;;;;;16.07;50.22;99936.47;5036077;28;20043;-81
2023/04/12 02:40:44;;;;;;;28.30;26.58;;;;;;;16.06;50.29;99929.41;5035764;28;20034;-81
2023/04/12 02:43:09;;;;;;;24.90;23.50;;;;;;;16.05;50.07;99919.59;5035941;28;20488;-81
2023/04/12 02:45:35;;;;;;;26.55;25.17;;;;;;;16.03;50.07;99906.28;5035933;28;20037;-80
2023/04/12 02:48:01;;;;;;;24.70;23.50;;;;;;;16.00;50.33;99910.44;5036084;28;20090;-81
2023/04/12 02:50:27;;;;;;;25.05;23.85;;;;;;;16.00;50.33;99891.34;5034387;28;20471;-81
2023/04/12 02:52:52;;;;;;;24.80;23.50;;;;;;;15.98;50.26;99887.31;5036147;28;20048;-81
2023/04/12 02:55:18;;;;;;;24.88;23.58;;;;;;;15.98;50.50;99890.03;5034914;28;20394;-81
2023/04/12 02:57:47;;;;;;;25.10;23.80;;;;;;;15.98;50.19;99879.94;5034306;28;20029;-81
2023/04/12 03:00:15;;;;;;;24.52;23.25;;;;;;;15.95;50.49;99880.56;5034476;28;20505;-81
2023/04/12 03:02:41;;;;;;;26.65;25.25;;;;;;;15.95;50.55;99875.09;5035559;28;20025;-81
2023/04/12 03:05:06;;;;;;;25.92;24.42;;;;;;;15.93;50.47;99866.41;5036273;28;20458;-80
2023/04/12 03:07:32;;;;;;;24.30;23.10;;;;;;;15.92;50.50;99867.50;5035690;28;20033;-80
2023/04/12 03:09:58;;;;;;;23.90;22.52;;;;;;;15.91;50.05;99865.91;5034469;28;20385;-80
2023/04/12 03:12:23;;;;;;;25.45;24.25;;;;;;;15.89;50.19;99856.41;5035345;28;20079;-80
2023/04/12 03:14:49;;;;;;;25.80;24.40;;;;;;;15.89;50.49;99865.41;5035323;28;20037;-80
2023/04/12 03:17:14;;;;;;;27.10;25.80;;;;;;;15.86;50.57;99857.84;5035390;28;20034;-80
2023/04/12 03:19:40;;;;;;;25.58;24.25;;;;;;;15.85;50.57;99853.50;5035141;28;20116;-80
2023/04/12 03:22:05;;;;;;;24.15;22.95;;;;;;;15.85;50.56;99844.50;5035139;28;20025;-81
2023/04/12 03:24:32;;;;;;;26.27;24.98;;;;;;;15.84;50.25;99840.97;5033838;28;20112;-80
2023/04/12 03:26:58;;;;;;;24.10;22.90;;;;;;;15.83;50.65;99847.53;5035050;28;20028;-80
2023/04/12 03:29:23;;;;;;;25.02;23.77;;;;;;;15.81;50.32;99833.41;5035325;28;20037;-80
2023/04/12 03:31:49;;;;;;;26.23;24.83;;;;;;;15.82;50.46;99824.13;5034834;28;20095;-79
2023/04/12 03:34:15;;;;;;;25.00;23.80;;;;;;;15.80;50.17;99820.91;5034811;28;20053;-79
2023/04/12 03:36:40;;;;;;;24.58;23.10;;;;;;;15.79;50.68;99817.38;5034829;28;20124;-80
2023/04/12 03:39:06;;;;;;;24.83;23.58;;;;;;;15.80;50.60;99815.47;5033708;28;20072;-80
2023/04/12 03:41:34;;;;;;;24.77;23.58;;;;;;;15.79;50.38;99805.66;5034768;28;20034;-80
2023/04/12 03:43:59;;;;;;;23.48;22.27;;;;;;;15.76;50.42;99804.34;5034809;28;20484;-80
2023/04/12 03:46:25;;;;;;;25.80;24.50;;;;;;;15.75;50.55;99796.50;5034029;28;20033;-79
2023/04/12 03:48:51;;;;;;;25.13;23.80;;;;;;;15.74;50.51;99786.72;5033318;28;20497;-79
2023/04/12 03:51:16;;;;;;;24.40;23.20;;;;;;;15.72;50.65;99784.31;5034572;28;20041;-78
2023/04/12 03:53:42;;;;;;;24.20;22.75;;;;;;;15.72;50.47;99778.03;5034225;28;20434;-79
2023/04/12 03:56:08;;;;;;;24.35;23.10;;;;;;;15.71;50.65;99776.41;5034476;28;20044;-78
2023/04/12 03:58:34;;;;;;;23.88;22.63;;;;;;;15.70;50.66;99772.06;5034443;28;20026;-78
2023/04/12 04:01:04;;;;;;;24.35;23.05;;;;;;;15.69;50.39;99762.25;5034502;28;20120;-77
2023/04/12 04:03:33;;;;;;;24.30;23.00;;;;;;;15.67;50.71;99751.66;5034387;28;20484;-78
2023/04/12 04:06:02;;;;;;;26.17;24.75;;;;;;;15.66;50.56;99750.06;5034342;28;20065;-78
2023/04/12 04:08:28;;;;;;;;;;;;;;;15.61;50.67;99744.72;5033878;28;20496;-78
2023/04/12 04:10:55;;;;;;;23.70;22.45;;;;;;;15.58;50.76;99737.97;5033107;28;19916;-78
2023/04/12 04:13:20;;;;;;;24.83;23.52;;;;;;;15.57;50.67;99739.06;5034163;28;20044;-78
2023/04/12 04:15:50;;;;;;;24.45;23.15;;;;;;;15.56;50.77;99737.44;5034072;28;20037;-78
2023/04/12 04:18:15;;;;;;;24.38;23.17;;;;;;;15.57;50.63;99724.63;5034719;28;20039;-78
2023/04/12 04:20:41;;;;;;;24.42;23.13;;;;;;;15.57;50.70;99735.53;5034191;28;20033;-78
2023/04/12 04:23:09;;;;;;;23.80;22.60;;;;;;;15.56;50.62;99723.03;5033913;28;20033;-80
2023/04/12 04:25:38;;;;;;;25.60;24.27;;;;;;;15.54;50.73;99734.22;5032699;28;20462;-83
2023/04/12 04:28:05;;;;;;;22.95;21.75;;;;;;;15.54;50.63;99720.59;5032706;28;20426;-79
2023/04/12 04:30:32;;;;;;;23.50;22.30;;;;;;;15.53;50.84;99734.53;5032679;28;20034;-79
2023/04/12 04:32:58;;;;;;;23.67;22.38;;;;;;;15.52;51.01;99722.84;5033977;28;20370;-79
2023/04/12 04:35:24;;;;;;;23.08;21.88;;;;;;;15.51;50.85;99712.25;5034013;28;20060;-79
2023/04/12 04:37:51;;;;;;;25.65;24.35;;;;;;;15.51;50.95;99717.69;5033815;28;20259;-80
2023/04/12 04:40:19;;;;;;;24.38;22.98;;;;;;;15.50;51.01;99711.44;5034036;28;20040;-80
2023/04/12 04:42:45;;;;;;;23.55;22.35;;;;;;;15.49;50.94;99706.28;5033760;28;20112;-79
2023/04/12 04:45:14;;;;;;;23.73;22.48;;;;;;;15.47;50.89;99706.59;5033328;28;20454;-79
2023/04/12 04:47:39;;;;;;;24.35;23.15;;;;;;;15.46;50.98;99704.97;5033837;28;20555;-79
2023/04/12 04:50:06;;;;;;;24.30;22.90;;;;;;;15.46;50.85;99704.97;5032637;28;20037;-79
2023/04/12 04:52:31;;;;;;;24.00;22.70;;;;;;;15.45;50.79;99708.81;5032120;28;20041;-79
2023/04/12 04:54:57;;;;;;;25.77;24.38;;;;;;;15.44;50.93;99703.66;5032906;28;20081;-79
2023/04/12 04:57:23;;;;;;;24.00;22.70;;;;;;;15.43;50.95;99702.84;5031839;28;20030;-80
2023/04/12 04:59:49;;;;;;;23.75;22.55;;;;;;;15.41;51.07;99710.50;5032399;28;20035;-79
2023/04/12 05:02:17;;;;;;;23.27;22.05;;;;;;;15.39;51.10;99710.00;5031949;28;20100;-79
2023/04/12 05:04:43;;;;;;;24.02;22.73;;;;;;;15.39;51.03;99707.28;5033314;28;20116;-79
2023/04/12 05:07:09;;;;;;;23.27;22.00;;;;;;;15.39;50.47;99703.75;5033162;28;20112;-79
2023/04/12 05:09:35;;;;;;;25.88;24.58;;;;;;;15.39;51.22;99698.31;5033232;28;20068;-81
2023/04/12 05:12:00;;;;;;;24.17;22.80;;;;;;;15.36;50.92;99689.63;5033097;28;20041;-80
2023/04/12 05:14:25;;;;;;;22.83;21.65;;;;;;;15.36;50.82;99691.56;5033173;28;20488;-80
2023/04/12 05:16:51;;;;;;;25.85;24.40;;;;;;;15.36;51.21;99699.72;5033082;28;20080;-79
2023/04/12 05:19:16;;;;;;;24.95;23.55;;;;;;;15.35;50.87;99695.41;5033247;28;20087;-79
2023/04/12 05:21:41;;;;;;;23.52;22.33;;;;;;;15.34;51.11;99686.41;5032798;28;20053;-80
2023/04/12 05:24:07;;;;;;;23.83;22.52;;;;;;;15.33;51.26;99689.44;5032864;28;20049;-80
2023/04/12 05:26:33;;;;;;;23.48;22.25;;;;;;;15.32;51.07;99685.91;5031800;28;20087;-79
2023/04/12 05:29:00;;;;;;;25.55;24.10;;;;;;;15.32;51.23;99685.91;5032878;28;20034;-80
2023/04/12 05:31:26;;;;;;;23.02;21.73;;;;;;;15.33;51.06;99678.56;5033057;28;20033;-80
2023/04/12 05:33:53;;;;;;;24.23;23.00;;;;;;;15.32;50.94;99676.94;5036591;28;20144;-79
2023/04/12 05:36:19;;;;;;;21.85;20.75;;;;;;;15.31;51.25;99676.13;5037147;28;20059;-79
2023/04/12 05:38:44;;;;;;;22.35;21.15;;;;;;;15.31;51.24;99680.78;5037102;28;20458;-79
2023/04/12 05:41:10;;;;;;;23.92;22.52;;;;;;;15.28;51.33;99682.19;5036746;28;20035;-78
2023/04/12 05:43:36;;;;;;;23.88;22.67;;;;;;;15.28;51.26;99681.38;5035901;28;20033;-79
2023/04/12 05:46:02;;;;;;;22.98;21.67;;;;;;;15.26;51.29;99683.59;5035864;28;20034;-79
2023/04/12 05:48:27;;;;;;;23.33;22.02;;;;;;;15.26;51.20;99692.53;5036788;28;20449;-78
2023/04/12 05:50:53;;;;;;;27.48;25.85;;;;;;;15.26;51.14;99689.03;5036503;28;20040;-78
2023/04/12 05:53:19;;;;;;;23.38;22.08;;;;;;;15.24;50.95;99694.75;5036212;28;20049;-78
2023/04/12 05:55:45;;;;;;;24.40;23.15;;;;;;;15.24;51.36;99694.75;5035313;28;20401;-79
2023/04/12 05:58:10;;;;;;;24.38;23.08;;;;;;;15.23;51.02;99704.03;5018761;28;20099;-79
2023/04/12 06:00:42;;;;;;;23.02;21.83;;;;;;;15.23;51.23;99697.78;5036967;28;20061;-78
2023/04/12 06:03:09;;;;;;;23.48;22.15;;;;;;;15.22;51.31;99716.03;5036687;28;20434;-79
2023/04/12 06:05:34;;;;;;;22.85;21.65;;;;;;;15.20;51.42;99714.72;5036735;28;20037;-79
2023/04/12 06:08:00;;;;;;;22.50;21.25;;;;;;;15.20;51.35;99712.00;5036376;28;20030;-78
2023/04/12 06:10:26;;;;;;;23.02;21.83;;;;;;;15.20;51.26;99709.28;5036156;28;20030;-79
2023/04/12 06:12:52;;;;;;;24.13;22.83;;;;;;;15.18;51.13;99701.41;5019267;28;20036;-78
2023/04/12 06:15:19;;;;;;;23.17;21.98;;;;;;;15.19;51.18;99713.88;5035780;28;20104;-78
2023/04/12 06:17:45;;;;;;;22.80;21.60;;;;;;;15.18;51.29;99709.56;5034865;28;20540;-78
2023/04/12 06:20:11;;;;;;;24.77;23.30;;;;;;;15.18;51.52;99706.84;5034260;28;20057;-78
2023/04/12 06:22:36;;;;;;;22.83;21.52;;;;;;;15.18;51.26;99714.19;5036158;28;20146;-79
2023/04/12 06:25:02;;;;;;;23.65;22.25;;;;;;;15.19;51.49;99707.66;5035802;28;20385;-77
2023/04/12 06:27:28;;;;;;;24.48;22.98;;;;;;;15.17;51.25;99693.53;5036086;28;20121;-79
2023/04/12 06:29:54;;;;;;;23.17;21.98;;;;;;;15.17;51.11;99697.06;5035124;28;20159;-85
2023/04/12 06:32:19;;;;;;;23.80;22.50;;;;;;;15.16;51.12;99690.00;5036086;28;20041;-74
2023/04/12 06:34:44;;;;;;;23.88;22.58;;;;;;;15.14;51.65;99695.75;5036438;28;20053;-76
2023/04/12 06:37:10;;;;;;;24.58;23.15;;;;;;;15.14;51.31;99692.22;5035843;28;20029;-77
2023/04/12 06:39:35;;;;;;;24.08;22.77;;;;;;;15.11;51.65;99696.34;5036261;28;20029;-76
2023/04/12 06:42:01;;;;;;;24.40;22.95;;;;;;;15.12;51.56;99705.31;5035286;28;20040;-77
2023/04/12 06:44:27;;;;;;;21.88;20.70;;;;;;;15.12;51.59;99699.88;5034350;28;20029;-76
2023/04/12 06:46:52;;;;;;;23.02;21.83;;;;;;;15.12;51.53;99699.88;5035604;28;20029;-77
2023/04/12 06:49:18;;;;;;;22.75;21.45;;;;;;;15.11;51.71;99696.34;5035545;28;20040;-77
2023/04/12 06:51:44;;;;;;;23.90;22.50;;;;;;;15.12;51.56;99702.59;5036097;28;20072;-78
2023/04/12 06:54:10;;;;;;;24.50;23.13;;;;;;;15.11;51.28;99690.09;5035551;28;20048;-78
2023/04/12 06:56:36;;;;;;;23.65;22.35;;;;;;;15.11;51.63;99693.63;5034275;28;20033;-80
2023/04/12 06:59:02;;;;;;;23.70;22.45;;;;;;;15.11;51.21;99690.91;5034975;28;20029;-77
2023/04/12 07:01:27;;;;;;;23.08;21.77;;;;;;;15.10;51.65;99697.44;5051123;28;20025;-83
2023/04/12 07:03:53;;;;;;;24.05;22.73;;;;;;;15.09;51.57;99695.03;5035647;28;20025;-76
2023/04/12 07:06:18;;;;;;;23.10;21.90;;;;;;;15.09;51.23;99686.84;5035932;28;20432;-77
2023/04/12 07:08:43;;;;;;;24.85;23.55;;;;;;;15.08;51.68;99694.22;5035283;28;20485;-78
2023/04/12 07:11:09;;;;;;;23.73;22.33;;;;;;;15.07;51.39;99692.63;5033880;28;20033;-77
2023/04/12 07:13:34;;;;;;;25.42;24.00;;;;;;;15.07;51.28;99694.53;5035106;28;20033;-78
2023/04/12 07:16:00;;;;;;;23.48;22.27;;;;;;;15.07;51.30;99684.47;5033876;28;20041;-82
2023/04/12 07:18:25;;;;;;;23.25;21.98;;;;;;;15.07;51.77;99687.19;5033866;28;20493;-77
2023/04/12 07:20:54;;;;;;;22.88;21.70;;;;;;;15.07;51.79;99697.25;5034669;28;20033;-76
2023/04/12 07:23:19;;;;;;;24.17;22.95;;;;;;;15.05;51.80;99697.53;5034990;28;20037;-76
2023/04/12 07:25:45;;;;;;;24.73;23.33;;;;;;;15.05;51.62;99705.69;5034334;28;20029;-77
2023/04/12 07:28:10;;;;;;;25.13;23.50;;;;;;;15.05;51.76;99697.53;5034798;28;20033;-80
2023/04/12 07:30:38;;;;;;;23.05;21.63;;;;;;;15.05;51.64;99694.03;5035068;28;20036;-78
2023/04/12 07:33:04;;;;;;;22.63;21.40;;;;;;;15.04;51.56;99693.19;5033411;28;20041;-76
2023/04/12 07:35:33;;;;;;;23.45;22.23;;;;;;;15.05;51.57;99694.03;5033159;28;20053;-77
2023/04/12 07:37:59;;;;;;;21.48;20.38;;;;;;;15.04;51.30;99695.91;5035247;28;20094;-78
2023/04/12 07:40:25;;;;;;;24.20;22.90;;;;;;;15.04;51.61;99682.31;5034649;28;20466;-78
2023/04/12 07:42:51;;;;;;;22.80;21.55;;;;;;;15.01;51.57;99682.91;5034517;28;20029;-78
2023/04/12 07:45:16;;;;;;;25.50;23.80;;;;;;;15.03;51.79;99674.47;5033388;28;20495;-77
2023/04/12 07:47:41;;;;;;;24.65;23.27;;;;;;;15.02;51.64;99672.84;5034841;28;20036;-78
2023/04/12 07:50:07;;;;;;;25.00;23.52;;;;;;;15.03;51.84;99667.09;5034983;28;20525;-79
2023/04/12 07:52:33;;;;;;;25.02;23.58;;;;;;;15.02;51.74;99657.34;5033148;28;20047;-77
2023/04/12 07:54:58;;;;;;;24.58;23.10;;;;;;;15.03;51.56;99658.16;5033736;28;20033;-81
2023/04/12 07:57:26;;;;;;;23.17;21.92;;;;;;;15.03;51.79;99661.66;5034334;28;20363;-77
2023/04/12 07:59:52;;;;;;;23.33;21.83;;;;;;;15.02;51.65;99668.22;5033403;28;20045;-77
2023/04/12 08:02:23;;;;;;;24.10;22.75;;;;;;;15.02;51.94;99683.72;5034150;28;20367;-78
2023/04/12 08:04:49;;;;;;;23.42;22.00;;;;;;;15.02;51.75;99679.09;5034496;28;20453;-77
2023/04/12 08:07:15;;;;;;;23.90;22.10;;;;;;;15.01;51.85;99682.91;5033010;28;20061;-79
2023/04/12 08:09:40;;;;;;;23.85;22.55;;;;;;;15.03;51.72;99682.63;5032871;28;20418;-77
2023/04/12 08:12:06;;;;;;;23.63;22.20;;;;;;;15.03;51.56;99674.47;5033744;28;20513;-82
2023/04/12 08:14:31;;;;;;;24.38;22.67;;;;;;;15.04;51.65;99676.88;5033567;28;20042;-83
2023/04/12 08:16:57;;;;;;;22.23;21.13;;;;;;;15.02;51.56;99678.28;5033856;28;20168;-84
2023/04/12 08:19:22;;;;;;;23.40;21.95;;;;;;;15.03;51.99;99674.47;5016244;28;20124;-78
2023/04/12 08:21:48;;;;;;;24.70;23.20;;;;;;;15.03;51.90;99678.00;5033625;28;20465;-78
2023/04/12 08:24:13;;;;;;;22.85;21.55;;;;;;;15.03;52.04;99679.91;5032663;28;20115;-81
2023/04/12 08:26:39;;;;;;;25.77;23.92;;;;;;;15.03;51.93;99680.72;5033853;28;20042;-79
2023/04/12 08:29:04;;;;;;;23.38;22.05;;;;;;;15.04;51.68;99676.06;5033739;28;20059;-78
2023/04/12 08:31:30;;;;;;;24.17;22.77;;;;;;;15.05;51.57;99681.22;5033695;28;20037;-79
2023/04/12 08:33:55;;;;;;;23.55;22.00;;;;;;;15.06;52.02;99685.53;5033572;28;20045;-78
2023/04/12 08:36:22;;;;;;;25.55;23.90;;;;;;;15.07;51.95;99691.81;5032146;28;20489;-78
2023/04/12 08:38:51;;;;;;;22.55;21.35;;;;;;;15.07;52.06;99695.34;5033897;28;20041;-78
2023/04/12 08:41:17;;;;;;;;;;;;;;;15.04;52.03;99693.19;5033965;28;20033;-77
2023/04/12 08:43:47;;;;;;;24.63;23.02;;;;;;;15.06;52.07;99682.03;5033538;28;20420;-78
2023/04/12 08:46:14;;;;;;;24.20;22.65;;;;;;;15.06;51.85;99692.91;5033143;28;20497;-79
2023/04/12 08:48:42;;;;;;;25.27;23.83;;;;;;;15.06;52.10;99682.03;5033439;28;20068;-78
2023/04/12 08:51:10;;;;;;;23.02;21.83;;;;;;;15.07;52.08;99689.09;5033460;28;20488;-78
2023/04/12 08:53:35;;;;;;;21.65;20.45;;;;;;;15.08;52.11;99686.06;5032450;28;20033;-80
2023/04/12 08:56:01;;;;;;;23.88;22.48;;;;;;;15.07;52.09;99681.72;5033369;28;20479;-79
2023/04/12 08:58:28;;;;;;;23.90;22.27;;;;;;;15.08;52.15;99677.91;5033092;28;20097;-79
2023/04/12 09:00:54;;;;;;;24.77;22.92;;;;;;;15.09;52.00;99679.53;5033130;28;20034;-80
2023/04/12 09:03:20;;;;;;;25.95;24.35;;;;;;;15.11;52.30;99671.06;5033204;28;20033;-78
2023/04/12 09:05:45;;;;;;;23.35;21.95;;;;;;;15.13;52.05;99675.09;5031590;28;20037;-80
2023/04/12 09:08:11;;;;;;;24.35;22.83;;;;;;;15.13;52.20;99680.53;5032808;28;20116;-78
2023/04/12 09:10:37;;;;;;;25.30;23.35;;;;;;;15.14;52.19;99676.72;5032941;28;20029;-79
2023/04/12 09:13:06;;;;;;;25.30;23.65;;;;;;;15.17;52.03;99669.88;5033377;28;20168;-79
2023/04/12 09:15:32;;;;;;;;;;;;;;;15.14;52.36;99665.84;5032359;28;20057;-79
2023/04/12 09:18:09;;;;;;;22.58;20.58;;;;;;;15.15;52.53;99667.44;5033265;28;19909;-79
2023/04/12 09:20:35;;;;;;;24.95;22.73;;;;;;;15.17;52.42;99659.00;5033194;28;20112;-79
2023/04/12 09:23:16;;;;;;;22.95;21.73;;;;;;;15.18;52.31;99659.78;5032070;28;20033;-80
2023/04/12 09:25:47;;;;;;;24.35;22.77;;;;;;;15.21;52.43;99662.72;5033650;28;20086;-81
2023/04/12 09:28:19;;;;;;;24.17;22.38;;;;;;;15.21;52.23;99668.16;5033730;28;20037;-80
2023/04/12 09:30:47;;;;;;;25.42;23.90;;;;;;;15.23;52.32;99665.94;5033121;28;20032;-80
2023/04/12 09:33:12;;;;;;;22.30;21.03;;;;;;;15.24;52.62;99658.59;5033351;28;20450;-79
2023/04/12 09:35:38;;;;;;;26.88;24.60;;;;;;;15.25;52.46;99655.56;5032428;28;20045;-79
2023/04/12 09:38:09;;;;;;;22.92;21.50;;;;;;;15.27;52.51;99655.25;5032693;28;20482;-80
2023/04/12 09:40:35;;;;;;;26.35;24.33;;;;;;;15.28;52.20;99643.28;5032946;28;20112;-78
2023/04/12 09:43:02;;;;;;;26.02;24.10;;;;;;;15.30;52.50;99641.88;5033545;28;20036;-80
2023/04/12 09:45:30;;;;;;;27.23;24.98;;;;;;;15.32;52.10;99647.00;5033052;28;20120;-78
2023/04/12 09:47:56;;;;;;;26.10;23.75;;;;;;;15.32;52.26;99645.09;5033933;28;20041;-80
2023/04/12 09:50:33;;;;;;;26.10;24.35;;;;;;;15.34;52.19;99642.88;5033002;28;20049;-77
2023/04/12 09:53:02;;;;;;;24.52;23.13;;;;;;;15.36;52.34;99640.66;5033231;28;20104;-77
2023/04/12 09:55:30;;;;;;;26.85;25.23;;;;;;;15.37;52.66;99638.75;5033016;28;20091;-80
2023/04/12 09:57:59;;;;;;;23.73;22.27;;;;;;;15.39;52.24;99643.88;5033102;28;20099;-81
2023/04/12 10:00:26;;;;;;;;;;;;;;;15.38;52.47;99651.25;5033292;28;20033;-78
2023/04/12 10:02:54;;;;;;;24.30;22.67;;;;;;;15.39;52.25;99647.41;5031643;28;20027;-80
2023/04/12 10:05:23;;;;;;;22.98;21.77;;;;;;;15.41;52.36;99644.41;5032874;28;20030;-80
2023/04/12 10:07:49;;;;;;;23.90;22.60;;;;;;;15.43;52.44;99647.63;5032843;28;20032;-77
2023/04/12 10:10:16;;;;;;;25.25;23.85;;;;;;;15.44;52.40;99652.75;5033171;28;20038;-80
2023/04/12 10:12:44;;;;;;;23.23;21.77;;;;;;;15.46;52.65;99653.25;5032711;28;20094;-78
2023/04/12 10:15:16;;;;;;;23.48;22.25;;;;;;;15.46;52.33;99649.75;5032819;28;20109;-77
2023/04/12 10:17:52;;;;;;;24.20;22.75;;;;;;;15.47;52.65;99651.34;5032995;28;20481;-78
2023/04/12 10:20:20;;;;;;;25.15;23.85;;;;;;;15.49;52.45;99644.50;5036395;28;20061;-77
2023/04/12 10:22:47;;;;;;;25.52;23.85;;;;;;;15.51;52.57;99663.25;5036326;28;20029;-80
2023/04/12 10:25:19;;;;;;;24.40;23.10;;;;;;;15.51;52.32;99657.81;5036499;28;20030;-77
2023/04/12 10:27:45;;;;;;;23.98;22.67;;;;;;;15.54;52.75;99662.66;5036276;28;20083;-78
2023/04/12 10:30:30;;;;;;;24.88;23.42;;;;;;;15.53;52.67;99656.41;5036219;28;20029;-78
2023/04/12 10:33:02;;;;;;;24.58;23.17;;;;;;;15.55;52.45;99653.38;5035996;28;20026;-78
2023/04/12 10:35:29;;;;;;;27.13;25.48;;;;;;;15.57;52.47;99651.16;5036112;28;20132;-78
2023/04/12 10:38:03;;;;;;;23.00;21.88;;;;;;;15.55;52.89;99659.63;5018540;28;20044;-78
2023/04/12 10:40:31;;;;;;;26.40;24.63;;;;;;;15.57;52.88;99659.31;5035795;28;20171;-79
2023/04/12 10:43:22;;;;;;;24.65;22.83;;;;;;;15.58;52.79;99658.22;5035840;28;20381;-78
2023/04/12 10:45:50;;;;;;;23.58;22.23;;;;;;;15.58;52.85;99659.03;5035932;28;20029;-78
2023/04/12 10:48:29;;;;;;;;;;;;;;;15.56;53.05;99661.22;5036527;28;20074;-79
2023/04/12 10:51:27;;;;;;;23.52;22.02;;;;;;;15.56;52.74;99663.16;5035342;28;20285;-78
2023/04/12 10:54:11;;;;;;;23.52;21.42;;;;;;;15.55;52.90;99659.63;5035736;28;20033;-77
2023/04/12 10:56:38;;;;;;;25.98;24.40;;;;;;;15.58;52.83;99661.75;5035962;28;20025;-77
2023/04/12 10:59:05;;;;;;;22.80;21.60;;;;;;;15.62;52.64;99666.56;5036420;28;20033;-77
2023/04/12 11:01:31;;;;;;;27.30;25.15;;;;;;;15.63;52.55;99666.28;5035480;28;20035;-77
2023/04/12 11:04:16;;;;;;;25.25;23.75;;;;;;;15.65;52.76;99668.69;5036254;28;20116;-77
2023/04/12 11:07:20;;;;;;;26.85;25.38;;;;;;;15.64;52.92;99667.09;5035485;28;20033;-77
2023/04/12 11:09:47;;;;;;;23.80;22.42;;;;;;;15.63;52.87;99668.22;5013697;28;20033;-78
2023/04/12 11:12:14;;;;;;;24.17;22.98;;;;;;;15.65;52.78;99676.84;5013230;28;20069;-79
2023/04/12 11:14:49;;;;;;;23.23;21.98;;;;;;;15.68;52.58;99670.81;5023691;28;20080;-80
2023/04/12 11:17:15;;;;;;;22.83;21.27;;;;;;;15.69;52.43;99675.97;5035587;28;20029;-78
2023/04/12 11:19:42;;;;;;;25.60;23.48;;;;;;;15.73;52.77;99677.00;5035547;28;20040;-80